Flight Track Log - Related Links

Times and Time Zones

All times are in EDT time to prevent confusion due to time zone crossing. See the N3738B flight status page for this flight to view local times or setup timezone preferences in your user account.

Time Position Orientation Groundspeed Altitude Reporting Facility
EDT Latitude Longitude Course Direction KTS MPH feet Rate Location/Type
Wed 10:09:45 PM 47.4800 -122.3119 164° South 170 196 1,400  Level Seattle Center
Wed 10:10:34 PM 47.5214 -122.3086 North 186 214 2,500 1,782 Climbing Seattle Center
Wed 10:11:26 PM 47.5781 -122.3092 360° North 222 255 4,400 2,496 Climbing Seattle Center
Wed 10:12:00 PM 47.1322 -122.1982 159° South  Level Estimated
Wed 10:12:27 PM 47.6100 -122.2267 60° Northeast 269 310 7,200  Level Seattle Center
Wed 10:13:00 PM 47.0262 -122.1606 163° South  Level Estimated
Wed 10:13:28 PM 47.5658 -122.1314 124° Southeast 300 345 9,900  Level Seattle Center
Wed 10:14:00 PM 46.9184 -122.1373 172° South  Level FlightAware
Wed 10:14:29 PM 47.4731 -122.1217 176° South 338 389 11,700  Level Seattle Center
Wed 10:15:00 PM 46.8092 -122.0987 164° South  Level Estimated
Wed 10:15:31 PM 47.3647 -122.1061 174° South 389 448 13,700  Level Seattle Center
Wed 10:16:32 PM 47.2436 -122.0814 172° South 406 467 16,200 2,262 Climbing Seattle Center
Wed 10:17:33 PM 47.1306 -122.0389 166° South 419 482 18,300 2,066 Climbing Seattle Center
Wed 10:18:34 PM 47.0150 -121.9986 167° South 430 495 20,400 1,967 Climbing Seattle Center
Wed 10:19:35 PM 46.8983 -121.9567 166° South 434 499 22,300 1,623 Climbing Seattle Center
Wed 10:20:36 PM 46.7786 -121.9125 166° South 447 514 23,700 1,426 Climbing Seattle Center
Wed 10:21:37 PM 46.6564 -121.8694 166° South 455 524 25,200 1,366 Climbing Seattle Center
Wed 10:22:39 PM 46.5317 -121.8250 166° South 465 535 26,500 1,415 Climbing Seattle Center
Wed 10:23:40 PM 46.4058 -121.7822 167° South 469 540 28,100 1,820 Climbing Seattle Center
Wed 10:24:41 PM 46.2558 -121.7306 167° South 467 537 30,200 1,770 Climbing Seattle Center
Wed 10:25:42 PM 46.1372 -121.6878 166° South 459 528 31,700 1,672 Climbing Seattle Center
Wed 10:26:43 PM 46.0164 -121.6458 166° South 451 519 33,600 1,770 Climbing Seattle Center
Wed 10:27:44 PM 45.9008 -121.6036 166° South 438 504 35,300 1,377 Climbing Seattle Center
Wed 10:28:45 PM 45.7872 -121.5667 167° South 424 488 36,400 836 Climbing Seattle Center
Wed 10:29:46 PM 45.6714 -121.5264 166° South 427 491 37,000 295 Climbing Seattle Center
Wed 10:30:47 PM 45.5539 -121.4883 167° South 433 498 37,000  Level Seattle Center
Wed 10:31:48 PM 45.4389 -121.4494 167° South 428 493 37,000  Level Seattle Center
Wed 10:32:50 PM 45.2992 -121.4017 166° South 431 496 37,000  Level Seattle Center
Wed 10:33:51 PM 45.1842 -121.3628 167° South 429 494 37,000  Level Seattle Center
Wed 10:34:52 PM 45.0689 -121.3258 167° South 428 493 37,000  Level Seattle Center
Wed 10:35:53 PM 44.9547 -121.2864 166° South 426 490 37,000  Level Seattle Center
Wed 10:36:54 PM 44.8394 -121.2494 167° South 426 490 37,000  Level Seattle Center
Wed 10:37:55 PM 44.7253 -121.2114 167° South 424 488 37,000  Level Seattle Center
Wed 10:38:56 PM 44.6158 -121.1756 167° South 423 487 37,000  Level Seattle Center
Wed 10:39:57 PM 44.5003 -121.1372 167° South 424 488 37,000  Level Seattle Center
Wed 10:40:58 PM 44.3850 -121.0992 167° South 424 488 37,000  Level Seattle Center
Wed 10:41:59 PM 44.2650 -121.0608 167° South 433 498 37,000  Level Seattle Center
Wed 10:43:00 PM 44.1256 -121.0161 167° South 434 499 37,000  Level Seattle Center
Wed 10:44:01 PM 44.0117 -120.9800 167° South 424 488 37,000  Level Seattle Center
Wed 10:45:02 PM 43.8969 -120.9419 167° South 424 488 37,000  Level Seattle Center
Wed 10:46:03 PM 43.7811 -120.9058 167° South 427 491 37,000  Level Seattle Center
Wed 10:47:04 PM 43.6667 -120.8689 167° South 425 489 37,000  Level Seattle Center
Wed 10:48:05 PM 43.5389 -120.8300 168° South 427 491 37,000  Level Seattle Center
Wed 10:49:06 PM 43.4242 -120.7944 167° South 425 489 37,000  Level Seattle Center
Wed 10:50:07 PM 43.3083 -120.7600 168° South 425 489 37,000  Level Seattle Center
Wed 10:51:08 PM 43.1911 -120.7236 167° South 427 491 37,000  Level Seattle Center
Wed 10:52:09 PM 43.0742 -120.6864 167° South 430 495 37,000  Level Seattle Center
Wed 10:53:10 PM 42.9567 -120.6511 168° South 431 496 37,000  Level Seattle Center
Wed 10:54:11 PM 42.8400 -120.6142 167° South 431 496 37,000  Level Seattle Center
Wed 10:55:12 PM 42.7253 -120.5792 167° South 427 491 37,000  Level Seattle Center
Wed 10:56:13 PM 42.6086 -120.5439 167° South 428 493 37,000  Level Seattle Center
Wed 10:57:14 PM 42.4911 -120.5097 168° South 430 495 37,000  Level Seattle Center
Wed 10:58:15 PM 42.3722 -120.4867 172° South 431 496 37,000  Level Seattle Center
Wed 10:59:16 PM 42.2514 -120.4650 172° South 436 502 37,000  Level Seattle Center
Wed 11:00:17 PM 42.1292 -120.4425 172° South 440 506 37,000  Level Seattle Center
Wed 11:01:18 PM 42.0086 -120.4197 172° South 438 504 37,000  Level Seattle Center
Wed 11:02:19 PM 41.8617 -120.3939 173° South 441 507 37,000  Level Seattle Center
Wed 11:03:20 PM 41.7428 -120.3706 172° South 435 501 37,000  Level Seattle Center
Wed 11:04:21 PM 41.6192 -120.3517 173° South 443 510 37,000  Level Seattle Center
Wed 11:05:22 PM 41.5000 -120.3297 172° South 436 502 37,000  Level Seattle Center
Wed 11:06:23 PM 41.3794 -120.3078 172° South 433 498 37,000  Level Seattle Center
Wed 11:07:24 PM 41.2617 -120.2869 172° South 432 497 37,000  Level Seattle Center
Wed 11:08:25 PM 41.1428 -120.2658 172° South 431 496 37,000  Level Seattle Center
Wed 11:09:26 PM 41.0244 -120.2453 173° South 429 494 37,000  Level Seattle Center
Wed 11:10:26 PM 40.9067 -120.2244 172° South 428 493 37,000  Level Seattle Center
Wed 11:11:27 PM 40.7878 -120.2033 172° South 429 494 37,000  Level Seattle Center
Wed 11:12:28 PM 40.6689 -120.1842 173° South 430 495 37,000  Level Seattle Center
Wed 11:13:29 PM 40.5508 -120.1625 172° South 430 495 37,000  Level Seattle Center
Wed 11:14:30 PM 40.4322 -120.1431 173° South 429 494 37,000  Level Seattle Center
Wed 11:15:31 PM 40.3122 -120.1219 172° South 433 498 37,000  Level Seattle Center
Wed 11:16:32 PM 40.1694 -120.0969 172° South 433 498 37,000  Level Seattle Center
Wed 11:17:33 PM 40.0522 -120.0636 168° South 435 501 37,000  Level Seattle Center
Wed 11:19:01 PM 39.8950 -119.9631 154° Southeast 450 518 37,000  Level Oakland Center
Wed 11:20:02 PM 39.7822 -119.8928 154° Southeast 451 519 37,000  Level Oakland Center
Wed 11:21:03 PM 39.6658 -119.8536 165° South 440 506 37,000  Level Oakland Center
Wed 11:22:04 PM 39.5408 -119.8417 176° South 452 520 37,000  Level Oakland Center
Wed 11:23:05 PM 39.4156 -119.8286 175° South 453 521 37,000  Level Oakland Center
Wed 11:24:07 PM 39.2683 -119.8119 175° South 448 516 37,000  Level Oakland Center
Wed 11:25:08 PM 39.1447 -119.8006 176° South 447 514 37,000  Level Oakland Center
Wed 11:26:09 PM 39.0214 -119.7931 177° South 446 513 37,000  Level Oakland Center
Wed 11:27:10 PM 38.9081 -119.7850 177° South 447 514 37,000  Level Oakland Center
Wed 11:28:11 PM 38.7747 -119.7767 177° South 445 512 37,000  Level Oakland Center
Wed 11:29:12 PM 38.6525 -119.7692 177° South 443 510 37,000  Level Oakland Center
Wed 11:30:13 PM 38.5311 -119.7636 178° South 438 504 37,000  Level Oakland Center
Wed 11:31:14 PM 38.3981 -119.7536 177° South 437 503 37,000  Level Oakland Center
Wed 11:32:15 PM 38.2711 -119.7469 178° South 437 503 37,000  Level Oakland Center
Wed 11:33:16 PM 38.1497 -119.7400 177° South 436 502 37,000  Level Oakland Center
Wed 11:34:17 PM 38.0294 -119.7325 177° South 431 496 37,000  Level Oakland Center
Wed 11:35:18 PM 37.9081 -119.7253 177° South 435 501 37,000  Level Oakland Center
Wed 11:36:19 PM 37.7842 -119.7169 177° South 441 507 37,000  Level Oakland Center
Wed 11:37:20 PM 37.6614 -119.7100 177° South 441 507 37,000  Level Oakland Center
Wed 11:38:21 PM 37.5386 -119.7028 177° South 440 506 37,000  Level Oakland Center
Wed 11:39:22 PM 37.4167 -119.6947 177° South 438 504 37,000  Level Oakland Center
Wed 11:40:23 PM 37.2981 -119.6889 178° South 441 507 37,000  Level Oakland Center
Wed 11:41:24 PM 37.1769 -119.6811 177° South 438 504 37,000  Level Oakland Center
Wed 11:42:25 PM 37.0542 -119.6736 177° South 441 507 37,000  Level Oakland Center
Wed 11:43:26 PM 36.9056 -119.6728 180° South 445 512 37,000  Level Oakland Center
Wed 11:44:27 PM 36.7825 -119.6736 180° South 443 510 37,000  Level Oakland Center
Wed 11:45:28 PM 36.6603 -119.6700 179° South 437 503 37,000  Level Oakland Center
Wed 11:46:30 PM 36.5375 -119.6672 179° South 440 506 37,000 -49 Level Oakland Center
Wed 11:47:31 PM 36.4169 -119.6639 179° South 434 499 36,900  Descending Oakland Center
Wed 11:48:32 PM 36.2958 -119.6611 179° South 434 499 37,000 49 Climbing Oakland Center
Wed 11:49:33 PM 36.1747 -119.6600 180° South 435 501 37,000  Level Oakland Center
Wed 11:50:34 PM 36.0522 -119.6553 178° South 437 503 37,000 -49 Level Oakland Center
Wed 11:51:35 PM 35.9319 -119.6547 180° South 434 499 36,900  Descending Oakland Center
Wed 11:52:36 PM 35.8100 -119.6511 179° South 435 501 37,000  Climbing Oakland Center
Wed 11:53:37 PM 35.6875 -119.6483 179° South 437 503 36,900  Descending Oakland Center
Wed 11:54:25 PM 35.5919 -119.6486 180° South 435 501 37,000 55 Climbing Los Center
Wed 11:55:27 PM 35.4706 -119.6453 179° South 435 501 37,000  Level Los Center
Wed 11:56:29 PM 35.3525 -119.6144 168° South 436 502 37,000  Level Los Center
Wed 11:57:31 PM 35.2278 -119.5272 150° Southeast 432 497 37,000 -98 Level Los Center
Wed 11:58:32 PM 35.1233 -119.4547 150° Southeast 429 494 36,800 -1,463 Descending Los Center
Wed 11:59:34 PM 35.0206 -119.3842 151° Southeast 426 490 34,000 -3,048 Descending Los Center
Thu 12:00:36 AM 34.9150 -119.3117 151° Southeast 431 496 30,500 -3,145 Descending Los Center
Thu 12:01:38 AM 34.8092 -119.2375 150° Southeast 436 502 27,500 -2,732 Descending Los Center
Thu 12:02:39 AM 34.7047 -119.1664 151° Southeast 432 497 24,900 -2,683 Descending Los Center
Thu 12:03:41 AM 34.5931 -119.0794 147° Southeast 421 484 22,000 -2,613 Descending Los Center
Thu 12:04:43 AM 34.5006 -119.0017 145° Southeast 406 467 19,500 -2,468 Descending Los Center
Thu 12:05:45 AM 34.4092 -118.9275 146° Southeast 398 458 16,900 -2,195 Descending Los Center
Thu 12:06:46 AM 34.3192 -118.8669 151° Southeast 370 426 15,000 -1,511 Descending Los Center
Thu 12:08:00 AM 34.2286 -118.8764 185° South 333 383 13,500 -1,279 Descending Los Center
Thu 12:09:02 AM 34.1183 -118.8667 176° South 275 316 12,100 -1,306 Descending Los Center
Thu 12:10:04 AM 34.0583 -118.8539 170° South 223 257 10,800 -1,016 Descending Los Center
Thu 12:11:06 AM 34.0453 -118.7781 102° East 218 251 10,000 -390 Descending Los Center
Thu 12:12:07 AM 34.0375 -118.7064 97° East 217 250 10,000  Level Los Center
Thu 12:13:09 AM 34.0311 -118.6442 97° East 221 254 10,000 -629 Level Los Center
Thu 12:14:11 AM 34.0211 -118.5553 98° East 216 249 8,700 -1,156 Descending Los Center
Thu 12:15:24 AM 34.0128 -118.4806 98° East 223 257 7,400 -1,022 Descending Los Center
Thu 12:16:26 AM 34.0150 -118.4028 88° East 220 253 6,400 -1,355 Descending Los Center
Thu 12:17:28 AM 34.0203 -118.3117 86° East 224 258 4,600 -1,403 Descending Los Center
Thu 12:18:30 AM 34.0228 -118.2378 88° East 222 255 3,500 -976 Descending Los Center
Thu 12:19:31 AM 34.0272 -118.1719 85° East 210 242 2,600 -509 Descending Los Center
Thu 12:20:16 AM 34.0333 -118.1167 82° East 188 216 2,600  Level Southern TRACON
Thu 12:21:11 AM 34.0333 -118.0667 90° East 191 220 2,600  Level Southern TRACON
Thu 12:22:11 AM 34.0000 -118.0667 180° South 208 239 2,600 -48 Level Southern TRACON
Thu 12:23:17 AM 33.9833 -118.1333 253° West 186 214 2,500 -61 Descending Southern TRACON
Thu 12:23:50 AM 33.9772 -118.1581 253° West 189 217 2,500  Level Los Center
Thu 12:24:51 AM 33.9714 -118.2175 263° West 183 211 2,500 -293 Level Los Center
Thu 12:25:53 AM 33.9636 -118.2900 263° West 183 211 1,900 -683 Descending Los Center
Thu 12:26:54 AM 33.9581 -118.3425 263° West 172 198 1,100 -780 Descending Los Center
Thu 12:27:56 AM 33.9542 -118.3917 265° West 160 184 300 -774 Descending Los Center

Login

Don't have an account? Register now (free) for customized features, flight alerts, and more!